createdAt,value
2022-08-01T00:00:08.766Z,52.62
2022-08-01T00:02:37.509Z,53.25
2022-08-01T00:05:06.855Z,53.55
2022-08-01T00:07:34.344Z,53.18
2022-08-01T00:10:02.116Z,52.79
2022-08-01T00:12:29.317Z,53.26
2022-08-01T00:14:56.436Z,52.97
2022-08-01T00:17:23.823Z,52.55
2022-08-01T00:19:50.958Z,52.04
2022-08-01T00:22:18.101Z,52.68
2022-08-01T00:24:45.482Z,52.33
2022-08-01T00:27:12.605Z,51.91
2022-08-01T00:30:09.642Z,51.90
2022-08-01T00:32:27.139Z,52.18
2022-08-01T00:34:54.267Z,53.25
2022-08-01T00:37:21.405Z,53.23
2022-08-01T00:39:48.804Z,52.64
2022-08-01T00:42:16.050Z,52.39
2022-08-01T00:44:43.183Z,52.32
2022-08-01T00:47:10.565Z,52.60
2022-08-01T00:49:37.801Z,52.36
2022-08-01T00:52:05.828Z,52.28
2022-08-01T00:54:33.520Z,51.55
2022-08-01T00:57:00.635Z,52.38
2022-08-01T00:59:27.743Z,52.49
2022-08-01T01:01:56.015Z,52.00
2022-08-01T01:04:23.359Z,52.03
2022-08-01T01:06:56.313Z,51.80
2022-08-01T01:09:23.672Z,51.79
2022-08-01T01:12:05.614Z,51.60
2022-08-01T01:14:38.861Z,51.80
2022-08-01T01:17:07.617Z,51.87
2022-08-01T01:19:36.506Z,51.75
2022-08-01T01:22:09.514Z,51.71
2022-08-01T01:24:46.488Z,52.26
2022-08-01T01:27:25.772Z,52.37
2022-08-01T01:30:00.539Z,52.64
2022-08-01T01:32:30.926Z,53.12
2022-08-01T01:34:58.673Z,52.39
2022-08-01T01:37:26.099Z,53.08
2022-08-01T01:39:54.077Z,52.79
2022-08-01T01:42:22.165Z,53.21
2022-08-01T01:44:49.335Z,52.26
2022-08-01T01:47:16.708Z,52.59
2022-08-01T01:49:45.156Z,52.89
2022-08-01T01:52:12.309Z,52.50
2022-08-01T01:54:41.764Z,53.44
2022-08-01T01:57:09.733Z,52.81
2022-08-01T01:59:37.354Z,53.04
2022-08-01T02:02:06.428Z,52.92
2022-08-01T02:04:35.940Z,52.79
2022-08-01T02:07:03.160Z,52.64
2022-08-01T02:09:30.268Z,53.32
2022-08-01T02:12:08.442Z,53.43
2022-08-01T02:14:36.547Z,53.17
2022-08-01T02:17:05.079Z,53.24
2022-08-01T02:19:37.893Z,52.94
2022-08-01T02:22:07.543Z,53.01
2022-08-01T02:24:36.645Z,53.37
2022-08-01T02:27:06.165Z,53.54
2022-08-01T02:29:44.065Z,53.65
2022-08-01T02:32:13.018Z,53.71
2022-08-01T02:34:40.378Z,54.07
2022-08-01T02:37:07.632Z,53.03
2022-08-01T02:39:35.059Z,54.08
2022-08-01T02:42:04.749Z,54.03
2022-08-01T02:44:32.652Z,54.23
2022-08-01T02:47:05.782Z,55.03
2022-08-01T02:49:34.496Z,54.41
2022-08-01T02:52:02.808Z,54.00
2022-08-01T02:54:30.278Z,54.01
2022-08-01T02:56:58.593Z,54.84
2022-08-01T02:59:26.757Z,56.47
2022-08-01T03:01:56.898Z,56.59
2022-08-01T03:04:24.532Z,57.20
2022-08-01T03:06:52.154Z,57.93
2022-08-01T03:09:19.331Z,58.99
2022-08-01T03:11:46.755Z,58.81
2022-08-01T03:14:13.905Z,56.43
2022-08-01T03:16:41.249Z,59.54
2022-08-01T03:19:09.294Z,59.30
2022-08-01T03:21:36.499Z,59.57
2022-08-01T03:24:03.713Z,60.17
2022-08-01T03:26:31.771Z,57.20
2022-08-01T03:29:00.222Z,60.02
2022-08-01T03:31:27.329Z,59.45
2022-08-01T03:33:54.704Z,59.60
2022-08-01T03:36:27.569Z,60.17
2022-08-01T03:38:56.005Z,58.84
2022-08-01T03:41:23.178Z,59.04
2022-08-01T03:43:55.908Z,56.62
2022-08-01T03:46:27.850Z,56.93
2022-08-01T03:48:55.374Z,57.64
2022-08-01T03:51:22.513Z,58.27
2022-08-01T03:53:49.984Z,57.05
2022-08-01T03:56:17.793Z,58.79
2022-08-01T03:58:44.905Z,58.71
2022-08-01T04:01:18.085Z,58.67
2022-08-01T04:03:45.553Z,57.87
2022-08-01T04:06:14.821Z,57.27
2022-08-01T04:08:42.284Z,57.04
2022-08-01T04:11:09.851Z,57.39
2022-08-01T04:13:38.555Z,57.00
2022-08-01T04:16:05.896Z,56.44
2022-08-01T04:18:33.309Z,55.87
2022-08-01T04:21:00.514Z,56.88
2022-08-01T04:23:28.097Z,57.99
2022-08-01T04:25:55.572Z,56.22
2022-08-01T04:28:22.681Z,59.48
2022-08-01T04:30:49.904Z,59.11
2022-08-01T04:33:17.337Z,58.70
2022-08-01T04:36:02.163Z,57.61
2022-08-01T04:38:31.921Z,58.88
2022-08-01T04:40:59.073Z,57.58
2022-08-01T04:43:35.797Z,56.31
2022-08-01T04:46:04.711Z,55.19
2022-08-01T04:48:32.867Z,56.42
2022-08-01T04:51:00.238Z,55.66
2022-08-01T04:53:27.699Z,54.78
2022-08-01T04:55:54.859Z,54.50
2022-08-01T04:58:22.248Z,53.95
2022-08-01T05:00:49.638Z,51.74
2022-08-01T05:03:16.794Z,51.36
2022-08-01T05:05:44.222Z,50.62
2022-08-01T05:08:11.368Z,51.60
2022-08-01T05:10:38.502Z,50.55
2022-08-01T05:13:07.440Z,48.48
2022-08-01T05:15:35.485Z,44.58
2022-08-01T05:18:02.634Z,40.03
2022-08-01T05:20:30.030Z,38.93
2022-08-01T05:22:58.164Z,35.98
2022-08-01T05:25:31.026Z,33.73
2022-08-01T05:28:12.661Z,35.69
2022-08-01T05:30:46.329Z,33.03
2022-08-01T05:33:13.715Z,30.71
2022-08-01T05:35:47.662Z,31.40
2022-08-01T05:38:15.861Z,29.93
2022-08-01T05:40:42.976Z,28.16
2022-08-01T05:43:10.083Z,25.81
2022-08-01T05:45:37.915Z,24.06
2022-08-01T05:48:05.158Z,23.22
2022-08-01T05:50:32.513Z,22.51
2022-08-01T05:52:59.902Z,22.31
2022-08-01T05:55:27.022Z,24.55
2022-08-01T05:57:54.180Z,25.78
2022-08-01T06:00:21.602Z,26.95
2022-08-01T06:02:48.972Z,29.14
2022-08-01T06:05:16.383Z,30.26
2022-08-01T06:07:43.491Z,31.20
2022-08-01T06:10:10.967Z,28.75
2022-08-01T06:12:38.109Z,28.49
2022-08-01T06:15:05.684Z,25.74
2022-08-01T06:17:33.085Z,24.11
2022-08-01T06:20:00.746Z,23.98
2022-08-01T06:22:27.901Z,22.20
2022-08-01T06:24:55.287Z,24.71
2022-08-01T06:27:22.899Z,25.97
2022-08-01T06:29:50.364Z,25.05
2022-08-01T06:32:26.424Z,26.28
2022-08-01T06:34:54.673Z,22.91
2022-08-01T06:37:22.590Z,23.49
2022-08-01T06:39:50.624Z,24.78
2022-08-01T06:42:18.409Z,24.47
2022-08-01T06:44:46.193Z,23.09
2022-08-01T06:47:13.456Z,25.93
2022-08-01T06:49:40.574Z,23.29
2022-08-01T06:52:08.568Z,24.04
2022-08-01T06:54:35.995Z,21.76
2022-08-01T06:57:05.758Z,20.80
2022-08-01T06:59:33.175Z,24.09
2022-08-01T07:02:01.991Z,25.87
2022-08-01T07:04:29.103Z,24.69
2022-08-01T07:06:56.568Z,22.59
2022-08-01T07:09:23.686Z,23.91
2022-08-01T07:11:51.629Z,24.63
2022-08-01T07:14:19.324Z,25.67
2022-08-01T07:16:46.420Z,23.54
2022-08-01T07:19:13.654Z,20.95
2022-08-01T07:21:41.407Z,20.70
2022-08-01T07:24:13.247Z,20.83
2022-08-01T07:26:47.730Z,21.42
2022-08-01T07:29:19.913Z,20.60
2022-08-01T07:31:47.299Z,22.17
2022-08-01T07:34:14.461Z,20.60
2022-08-01T07:36:41.583Z,23.00
2022-08-01T07:39:08.937Z,26.55
2022-08-01T07:41:52.857Z,25.15
2022-08-01T07:44:23.425Z,26.93
2022-08-01T07:46:50.620Z,26.59
2022-08-01T07:49:17.762Z,29.82
2022-08-01T07:52:04.047Z,27.39
2022-08-01T07:54:33.405Z,27.17
2022-08-01T07:57:02.104Z,29.01
2022-08-01T07:59:29.247Z,28.49
2022-08-01T08:01:56.416Z,29.32
2022-08-01T08:04:23.908Z,29.11
2022-08-01T08:06:51.130Z,32.14
2022-08-01T08:09:18.261Z,34.03
2022-08-01T08:11:47.859Z,32.94
2022-08-01T08:14:15.754Z,34.82
2022-08-01T08:16:43.176Z,35.53
2022-08-01T08:19:10.685Z,36.76
2022-08-01T08:21:38.830Z,37.12
2022-08-01T08:24:26.220Z,36.40
2022-08-01T08:26:55.625Z,36.38
2022-08-01T08:29:23.081Z,37.10
2022-08-01T08:31:51.281Z,37.12
2022-08-01T08:34:20.425Z,37.56
2022-08-01T08:36:48.272Z,39.07
2022-08-01T08:39:17.559Z,37.58
2022-08-01T08:41:49.607Z,38.32
2022-08-01T08:44:17.401Z,38.10
2022-08-01T08:46:48.284Z,38.63
2022-08-01T08:49:17.517Z,38.38
2022-08-01T08:51:44.877Z,37.98
2022-08-01T08:54:12.211Z,39.03
2022-08-01T08:56:39.635Z,38.32
2022-08-01T08:59:06.762Z,38.81
2022-08-01T09:01:34.488Z,38.42
2022-08-01T09:04:05.046Z,39.11
2022-08-01T09:06:32.570Z,38.11
2022-08-01T09:08:59.787Z,36.65
2022-08-01T09:11:27.206Z,36.78
2022-08-01T09:14:12.970Z,36.52
2022-08-01T09:16:48.596Z,35.39
2022-08-01T09:19:40.551Z,34.38
2022-08-01T09:22:06.043Z,34.56
2022-08-01T09:24:33.368Z,35.81
2022-08-01T09:27:00.601Z,35.30
2022-08-01T09:29:38.262Z,34.43
2022-08-01T09:32:08.725Z,35.26
2022-08-01T09:34:43.530Z,34.86
2022-08-01T09:37:10.941Z,35.09
2022-08-01T09:39:44.065Z,35.42
2022-08-01T09:42:21.284Z,34.66
2022-08-01T09:44:56.490Z,32.31
2022-08-01T09:47:25.644Z,29.57
2022-08-01T09:49:57.376Z,30.73
2022-08-01T09:52:29.084Z,29.31
2022-08-01T09:55:00.606Z,29.01
2022-08-01T09:57:28.161Z,28.97
2022-08-01T09:59:58.757Z,27.66
2022-08-01T10:02:30.085Z,27.45
2022-08-01T10:05:03.321Z,28.50
2022-08-01T10:07:43.158Z,29.65
2022-08-01T10:10:12.541Z,30.00
2022-08-01T10:12:45.448Z,28.92
2022-08-01T10:15:15.017Z,30.53
2022-08-01T10:17:50.286Z,29.80
2022-08-01T10:20:28.873Z,30.27
2022-08-01T10:23:02.873Z,28.83
2022-08-01T10:25:43.036Z,28.37
2022-08-01T10:28:12.790Z,29.54
2022-08-01T10:30:40.884Z,30.29
2022-08-01T10:33:11.332Z,30.54
2022-08-01T10:35:58.697Z,30.10
2022-08-01T10:38:28.419Z,29.40
2022-08-01T10:40:55.957Z,28.90
2022-08-01T10:43:23.556Z,29.38
2022-08-01T10:45:51.040Z,28.69
2022-08-01T10:48:32.439Z,30.54
2022-08-01T10:51:01.105Z,29.27
2022-08-01T10:53:31.458Z,30.64
2022-08-01T10:56:12.737Z,30.72
2022-08-01T10:58:44.387Z,30.02
2022-08-01T11:01:15.181Z,30.18
2022-08-01T11:03:57.065Z,30.95
2022-08-01T11:06:26.658Z,31.77
2022-08-01T11:08:54.901Z,30.63
2022-08-01T11:11:22.527Z,31.34
2022-08-01T11:14:12.748Z,30.78
2022-08-01T11:16:40.629Z,30.30
2022-08-01T11:19:09.421Z,30.66
2022-08-01T11:22:06.016Z,31.52
2022-08-01T11:24:50.654Z,30.16
2022-08-01T11:27:23.841Z,30.04
2022-08-01T11:30:09.399Z,29.13
2022-08-01T11:33:10.509Z,28.76
2022-08-01T11:35:37.660Z,29.36
2022-08-01T11:38:30.981Z,29.78
2022-08-01T11:41:14.093Z,29.68
2022-08-01T11:43:59.693Z,28.14
2022-08-01T11:46:45.927Z,27.69
2022-08-01T11:49:29.846Z,29.94
2022-08-01T11:51:59.365Z,29.11
2022-08-01T11:54:35.279Z,29.53
2022-08-01T11:57:07.237Z,29.57
2022-08-01T11:59:38.343Z,30.14
2022-08-01T12:02:16.019Z,28.35
2022-08-01T12:05:02.147Z,28.61
2022-08-01T12:07:29.960Z,30.69
2022-08-01T12:09:58.344Z,30.95
2022-08-01T12:12:25.549Z,30.62
2022-08-01T12:14:56.325Z,30.29
2022-08-01T12:17:35.776Z,30.80
2022-08-01T12:20:03.843Z,31.07
2022-08-01T12:22:31.321Z,30.03
2022-08-01T12:25:05.599Z,30.60
2022-08-01T12:27:32.976Z,30.72
2022-08-01T12:30:00.186Z,30.71
2022-08-01T12:32:33.809Z,31.76
2022-08-01T12:35:08.552Z,31.70
2022-08-01T12:37:45.276Z,31.98
2022-08-01T12:40:19.240Z,32.26
2022-08-01T12:42:47.466Z,31.70
2022-08-01T12:45:15.669Z,31.48
2022-08-01T12:47:42.779Z,31.01
2022-08-01T12:50:16.469Z,30.70
2022-08-01T12:52:43.912Z,31.04
2022-08-01T12:55:14.980Z,32.39
2022-08-01T12:57:42.770Z,32.41
2022-08-01T13:00:11.430Z,32.06
2022-08-01T13:02:39.827Z,31.81
2022-08-01T13:05:07.212Z,32.48
2022-08-01T13:07:45.182Z,32.55
2022-08-01T13:10:12.891Z,32.28
2022-08-01T13:12:40.642Z,32.20
2022-08-01T13:15:17.960Z,31.51
2022-08-01T13:17:45.346Z,32.28
2022-08-01T13:20:21.964Z,32.07
2022-08-01T13:22:49.361Z,31.25
2022-08-01T13:25:20.828Z,31.66
2022-08-01T13:27:53.972Z,31.71
2022-08-01T13:30:22.892Z,32.02
2022-08-01T13:32:59.470Z,31.36
2022-08-01T13:35:26.687Z,32.02
2022-08-01T13:37:54.167Z,32.08
2022-08-01T13:40:27.614Z,31.58
2022-08-01T13:42:56.577Z,32.12
2022-08-01T13:45:23.952Z,32.06
2022-08-01T13:48:12.341Z,32.41
2022-08-01T13:50:40.632Z,31.87
2022-08-01T13:53:08.277Z,31.89
2022-08-01T13:55:35.734Z,31.90
2022-08-01T13:58:03.786Z,31.17
2022-08-01T14:00:31.176Z,30.78
2022-08-01T14:02:58.525Z,31.92
2022-08-01T14:05:25.645Z,32.29
2022-08-01T14:07:56.546Z,32.70
2022-08-01T14:10:24.536Z,32.01
2022-08-01T14:12:51.707Z,32.31
2022-08-01T14:15:36.936Z,31.55
2022-08-01T14:18:06.825Z,31.55
2022-08-01T14:20:34.642Z,32.53
2022-08-01T14:23:01.816Z,32.35
2022-08-01T14:26:03.477Z,32.33
2022-08-01T14:28:16.311Z,32.16
2022-08-01T14:30:43.727Z,32.52
2022-08-01T14:33:11.093Z,32.74
2022-08-01T14:36:01.341Z,32.84
2022-08-01T14:38:31.664Z,33.34
2022-08-01T14:41:00.756Z,33.08
2022-08-01T14:43:32.902Z,33.11
2022-08-01T14:46:01.111Z,32.76
2022-08-01T14:48:28.571Z,32.78
2022-08-01T14:50:57.858Z,33.25
2022-08-01T14:53:24.985Z,33.26
2022-08-01T14:55:52.361Z,33.97
2022-08-01T14:58:19.730Z,33.18
2022-08-01T15:00:46.968Z,33.72
2022-08-01T15:03:14.415Z,33.85
2022-08-01T15:05:41.558Z,33.60
2022-08-01T15:08:08.680Z,34.43
2022-08-01T15:10:36.099Z,34.40
2022-08-01T15:13:03.239Z,33.39
2022-08-01T15:15:30.417Z,33.40
2022-08-01T15:17:57.852Z,33.18
2022-08-01T15:20:25.547Z,33.37
2022-08-01T15:22:53.783Z,32.74
2022-08-01T15:25:21.225Z,32.90
2022-08-01T15:27:48.467Z,31.68
2022-08-01T15:30:15.609Z,32.58
2022-08-01T15:32:43.002Z,31.52
2022-08-01T15:35:11.234Z,31.58
2022-08-01T15:37:42.600Z,33.20
2022-08-01T15:40:11.194Z,33.04
2022-08-01T15:42:38.333Z,32.90
2022-08-01T15:45:05.624Z,32.74
2022-08-01T15:47:33.321Z,32.31
2022-08-01T15:50:02.367Z,32.44
2022-08-01T15:52:30.935Z,32.72
2022-08-01T15:54:59.392Z,32.19
2022-08-01T15:57:26.598Z,32.59
2022-08-01T15:59:53.704Z,32.04
2022-08-01T16:02:21.132Z,31.53
2022-08-01T16:04:48.624Z,33.15
2022-08-01T16:07:15.727Z,32.63
2022-08-01T16:09:42.868Z,32.65
2022-08-01T16:12:10.393Z,33.47
2022-08-01T16:14:37.691Z,32.96
2022-08-01T16:17:04.803Z,33.83
2022-08-01T16:19:32.246Z,33.40
2022-08-01T16:21:59.365Z,33.85
2022-08-01T16:24:29.166Z,32.67
2022-08-01T16:26:56.708Z,33.62
2022-08-01T16:29:24.005Z,33.31
2022-08-01T16:32:23.889Z,34.24
2022-08-01T16:34:38.680Z,34.61
2022-08-01T16:37:11.660Z,34.01
2022-08-01T16:39:39.032Z,33.17
2022-08-01T16:42:06.850Z,33.67
2022-08-01T16:44:34.635Z,33.68
2022-08-01T16:47:02.560Z,33.35
2022-08-01T16:49:29.830Z,34.20
2022-08-01T16:51:57.102Z,34.83
2022-08-01T16:54:26.140Z,34.10
2022-08-01T16:56:54.008Z,34.09
2022-08-01T16:59:21.217Z,34.52
2022-08-01T17:02:00.445Z,33.51
2022-08-01T17:04:29.681Z,34.11
2022-08-01T17:06:57.056Z,33.38
2022-08-01T17:09:24.213Z,33.36
2022-08-01T17:11:51.488Z,34.54
2022-08-01T17:14:18.921Z,34.79
2022-08-01T17:16:46.559Z,34.26
2022-08-01T17:19:14.593Z,35.02
2022-08-01T17:21:42.500Z,35.45
2022-08-01T17:24:09.630Z,35.09
2022-08-01T17:26:36.763Z,35.86
2022-08-01T17:29:04.148Z,35.94
2022-08-01T17:31:31.308Z,36.11
2022-08-01T17:33:58.458Z,35.57
2022-08-01T17:36:25.902Z,35.15
2022-08-01T17:38:53.036Z,35.82
2022-08-01T17:41:20.195Z,36.45
2022-08-01T17:43:48.081Z,35.59
2022-08-01T17:46:15.272Z,36.75
2022-08-01T17:48:44.306Z,35.99
2022-08-01T17:51:11.957Z,36.60
2022-08-01T17:53:55.698Z,36.32
2022-08-01T17:56:25.069Z,36.85
2022-08-01T17:58:52.464Z,36.31
2022-08-01T18:01:19.919Z,35.63
2022-08-01T18:03:47.955Z,35.82
2022-08-01T18:06:17.388Z,36.24
2022-08-01T18:08:46.968Z,35.72
2022-08-01T18:11:15.463Z,35.58
2022-08-01T18:13:42.723Z,36.21
2022-08-01T18:16:11.217Z,36.75
2022-08-01T18:18:39.126Z,36.65
2022-08-01T18:21:06.416Z,36.19
2022-08-01T18:23:33.777Z,36.84
2022-08-01T18:26:02.320Z,37.01
2022-08-01T18:28:34.204Z,36.62
2022-08-01T18:31:04.198Z,37.60
2022-08-01T18:33:31.342Z,37.09
2022-08-01T18:36:03.844Z,38.09
2022-08-01T18:38:33.103Z,38.08
2022-08-01T18:41:00.865Z,38.71
2022-08-01T18:43:28.093Z,39.44
2022-08-01T18:45:57.477Z,38.95
2022-08-01T18:48:24.713Z,39.08
2022-08-01T18:50:53.858Z,38.81
2022-08-01T18:53:23.733Z,38.73
2022-08-01T18:55:50.954Z,39.26
2022-08-01T18:58:18.517Z,39.90
2022-08-01T19:00:45.983Z,39.72
2022-08-01T19:03:13.784Z,39.92
2022-08-01T19:05:41.975Z,40.00
2022-08-01T19:08:09.460Z,39.59
2022-08-01T19:10:36.724Z,39.18
2022-08-01T19:13:03.849Z,39.26
2022-08-01T19:15:31.264Z,39.89
2022-08-01T19:17:58.410Z,41.22
2022-08-01T19:20:25.701Z,40.53
2022-08-01T19:22:53.090Z,40.66
2022-08-01T19:25:20.222Z,40.94
2022-08-01T19:27:48.940Z,40.98
2022-08-01T19:30:16.901Z,41.93
2022-08-01T19:32:44.694Z,41.31
2022-08-01T19:35:12.559Z,41.66
2022-08-01T19:37:47.661Z,42.33
2022-08-01T19:40:26.037Z,41.76
2022-08-01T19:42:55.980Z,41.84
2022-08-01T19:45:23.179Z,42.87
2022-08-01T19:47:56.281Z,42.67
2022-08-01T19:50:28.158Z,41.84
2022-08-01T19:52:55.678Z,41.60
2022-08-01T19:55:25.610Z,41.84
2022-08-01T20:00:40.480Z,41.65
2022-08-01T20:03:07.990Z,42.00
2022-08-01T20:05:36.462Z,41.53
2022-08-01T20:08:03.687Z,42.33
2022-08-01T20:10:31.778Z,44.51
2022-08-01T20:12:58.925Z,42.66
2022-08-01T20:15:26.045Z,44.00
2022-08-01T20:17:53.432Z,43.48
2022-08-01T20:20:20.592Z,42.67
2022-08-01T20:22:47.714Z,42.50
2022-08-01T20:25:15.108Z,44.26
2022-08-01T20:27:43.201Z,43.42
2022-08-01T20:30:10.516Z,43.37
2022-08-01T20:32:40.131Z,45.34
2022-08-01T20:35:08.419Z,45.44
2022-08-01T20:38:06.040Z,43.25
2022-08-01T20:40:27.129Z,43.57
2022-08-01T20:42:54.266Z,43.22
2022-08-01T20:45:21.804Z,43.87
2022-08-01T20:47:49.713Z,44.88
2022-08-01T20:50:54.102Z,44.34
2022-08-01T20:53:26.101Z,44.01
2022-08-01T20:56:13.482Z,44.01
2022-08-01T20:58:44.646Z,43.67
2022-08-01T21:01:13.089Z,43.97
2022-08-01T21:03:42.890Z,43.74
2022-08-01T21:06:16.120Z,44.77
2022-08-01T21:08:44.493Z,44.11
2022-08-01T21:11:13.189Z,43.80
2022-08-01T21:13:43.634Z,44.42
2022-08-01T21:16:23.882Z,43.85
2022-08-01T21:19:18.185Z,43.48
2022-08-01T21:21:44.033Z,43.45
2022-08-01T21:24:15.689Z,43.73
2022-08-01T21:26:43.241Z,44.52
2022-08-01T21:29:10.402Z,44.18
2022-08-01T21:31:40.443Z,44.40
2022-08-01T21:34:08.702Z,45.51
2022-08-01T21:36:35.941Z,44.34
2022-08-01T21:39:04.226Z,43.93
2022-08-01T21:41:56.500Z,43.84
2022-08-01T21:44:18.717Z,44.50
2022-08-01T21:46:48.142Z,44.15
2022-08-01T21:49:15.360Z,43.93
2022-08-01T21:51:43.198Z,43.33
2022-08-01T21:54:31.221Z,43.37
2022-08-01T21:57:18.891Z,43.58
2022-08-01T22:00:07.738Z,43.49
2022-08-01T22:02:36.670Z,43.84
2022-08-01T22:05:07.704Z,45.07
2022-08-01T22:07:39.342Z,44.45
2022-08-01T22:10:06.680Z,44.26
2022-08-01T22:12:34.370Z,44.31
2022-08-01T22:15:05.536Z,44.28
2022-08-01T22:17:33.287Z,43.90
2022-08-01T22:20:00.517Z,44.58
2022-08-01T22:22:32.397Z,44.12
2022-08-01T22:25:15.649Z,45.22
2022-08-01T22:28:07.749Z,44.33
2022-08-01T22:30:31.025Z,44.50
2022-08-01T22:33:07.796Z,44.30
2022-08-01T22:35:45.083Z,45.65
2022-08-01T22:38:12.459Z,45.07
2022-08-01T22:40:40.284Z,45.91
2022-08-01T22:43:10.870Z,45.72
2022-08-01T22:46:04.605Z,46.24
2022-08-01T22:48:34.671Z,45.44
2022-08-01T22:51:05.683Z,46.09
2022-08-01T22:53:42.618Z,45.18
2022-08-01T22:56:10.998Z,44.93
2022-08-01T22:58:39.207Z,44.73
2022-08-01T23:15:58.721Z,46.35
2022-08-01T23:18:26.186Z,46.55
2022-08-01T23:20:53.299Z,46.21
2022-08-01T23:23:30.704Z,47.55
2022-08-01T23:25:59.183Z,46.46
2022-08-01T23:28:26.421Z,46.94
2022-08-01T23:30:53.804Z,46.57
2022-08-01T23:33:21.184Z,47.61
2022-08-01T23:35:48.319Z,46.78
2022-08-01T23:38:16.076Z,46.49
2022-08-01T23:40:43.419Z,46.79
2022-08-01T23:43:16.976Z,47.38
2022-08-01T23:46:04.475Z,47.61
2022-08-01T23:48:35.551Z,48.04
2022-08-01T23:51:04.255Z,47.25
2022-08-01T23:53:31.638Z,47.25
2022-08-01T23:55:59.037Z,47.19
2022-08-01T23:58:28.491Z,47.18
